sensor_id;sensor_type;location;lat;lon;timestamp;P1;durP1;ratioP1;P2;durP2;ratioP2
13408;SDS011;6775;49.574;11.170;2023-02-15T00:01:54;11.03;;;6.37;;
13408;SDS011;6775;49.574;11.170;2023-02-15T00:04:23;11.73;;;7.10;;
13408;SDS011;6775;49.574;11.170;2023-02-15T00:07:14;10.40;;;5.93;;
13408;SDS011;6775;49.574;11.170;2023-02-15T00:09:44;15.13;;;7.60;;
13408;SDS011;6775;49.574;11.170;2023-02-15T00:12:12;11.50;;;6.83;;
13408;SDS011;6775;49.574;11.170;2023-02-15T00:14:41;10.77;;;6.20;;
13408;SDS011;6775;49.574;11.170;2023-02-15T00:17:09;11.67;;;6.47;;
13408;SDS011;6775;49.574;11.170;2023-02-15T00:19:37;11.70;;;6.20;;
13408;SDS011;6775;49.574;11.170;2023-02-15T00:22:06;11.33;;;7.30;;
13408;SDS011;6775;49.574;11.170;2023-02-15T00:24:35;11.07;;;7.07;;
13408;SDS011;6775;49.574;11.170;2023-02-15T00:27:04;11.17;;;6.80;;
13408;SDS011;6775;49.574;11.170;2023-02-15T00:29:32;12.57;;;7.20;;
13408;SDS011;6775;49.574;11.170;2023-02-15T00:31:59;10.40;;;6.60;;
13408;SDS011;6775;49.574;11.170;2023-02-15T00:34:27;10.33;;;6.77;;
13408;SDS011;6775;49.574;11.170;2023-02-15T00:36:55;10.37;;;6.67;;
13408;SDS011;6775;49.574;11.170;2023-02-15T00:39:23;13.37;;;7.03;;
13408;SDS011;6775;49.574;11.170;2023-02-15T00:41:54;11.97;;;6.67;;
13408;SDS011;6775;49.574;11.170;2023-02-15T00:44:22;13.60;;;7.67;;
13408;SDS011;6775;49.574;11.170;2023-02-15T00:46:50;12.37;;;7.20;;
13408;SDS011;6775;49.574;11.170;2023-02-15T00:49:18;13.37;;;7.90;;
13408;SDS011;6775;49.574;11.170;2023-02-15T00:51:45;13.90;;;7.20;;
13408;SDS011;6775;49.574;11.170;2023-02-15T00:54:13;13.40;;;7.20;;
13408;SDS011;6775;49.574;11.170;2023-02-15T00:56:41;14.57;;;7.77;;
13408;SDS011;6775;49.574;11.170;2023-02-15T00:59:10;12.20;;;7.13;;
13408;SDS011;6775;49.574;11.170;2023-02-15T01:01:38;13.17;;;7.13;;
13408;SDS011;6775;49.574;11.170;2023-02-15T01:04:06;13.30;;;7.90;;
13408;SDS011;6775;49.574;11.170;2023-02-15T01:06:34;13.23;;;7.60;;
13408;SDS011;6775;49.574;11.170;2023-02-15T01:09:02;12.80;;;7.77;;
13408;SDS011;6775;49.574;11.170;2023-02-15T01:11:30;14.80;;;7.47;;
13408;SDS011;6775;49.574;11.170;2023-02-15T01:13:58;13.70;;;7.57;;
13408;SDS011;6775;49.574;11.170;2023-02-15T01:16:27;11.30;;;7.50;;
13408;SDS011;6775;49.574;11.170;2023-02-15T01:18:56;11.67;;;6.37;;
13408;SDS011;6775;49.574;11.170;2023-02-15T01:21:24;12.83;;;7.77;;
13408;SDS011;6775;49.574;11.170;2023-02-15T01:23:53;11.23;;;7.07;;
13408;SDS011;6775;49.574;11.170;2023-02-15T01:26:21;14.07;;;7.23;;
13408;SDS011;6775;49.574;11.170;2023-02-15T01:28:48;13.67;;;6.90;;
13408;SDS011;6775;49.574;11.170;2023-02-15T01:31:17;13.27;;;7.37;;
13408;SDS011;6775;49.574;11.170;2023-02-15T01:33:48;11.50;;;6.43;;
13408;SDS011;6775;49.574;11.170;2023-02-15T01:36:16;13.50;;;7.57;;
13408;SDS011;6775;49.574;11.170;2023-02-15T01:38:44;13.47;;;6.90;;
13408;SDS011;6775;49.574;11.170;2023-02-15T01:41:12;13.13;;;7.83;;
13408;SDS011;6775;49.574;11.170;2023-02-15T01:43:54;11.00;;;6.80;;
13408;SDS011;6775;49.574;11.170;2023-02-15T01:46:24;13.13;;;7.43;;
13408;SDS011;6775;49.574;11.170;2023-02-15T01:48:58;12.17;;;7.10;;
13408;SDS011;6775;49.574;11.170;2023-02-15T01:51:30;14.07;;;7.53;;
13408;SDS011;6775;49.574;11.170;2023-02-15T01:54:01;13.43;;;6.87;;
13408;SDS011;6775;49.574;11.170;2023-02-15T01:56:33;12.67;;;6.07;;
13408;SDS011;6775;49.574;11.170;2023-02-15T01:59:05;12.93;;;7.93;;
13408;SDS011;6775;49.574;11.170;2023-02-15T02:01:36;10.97;;;7.03;;
13408;SDS011;6775;49.574;11.170;2023-02-15T02:04:08;11.90;;;7.10;;
13408;SDS011;6775;49.574;11.170;2023-02-15T02:06:40;12.33;;;7.07;;
13408;SDS011;6775;49.574;11.170;2023-02-15T02:09:08;12.17;;;7.93;;
13408;SDS011;6775;49.574;11.170;2023-02-15T02:11:37;10.47;;;6.20;;
13408;SDS011;6775;49.574;11.170;2023-02-15T02:14:06;12.13;;;7.27;;
13408;SDS011;6775;49.574;11.170;2023-02-15T02:19:31;10.37;;;6.17;;
13408;SDS011;6775;49.574;11.170;2023-02-15T02:25:24;12.83;;;6.87;;
13408;SDS011;6775;49.574;11.170;2023-02-15T02:28:15;10.83;;;6.47;;
13408;SDS011;6775;49.574;11.170;2023-02-15T02:31:07;11.67;;;6.87;;
13408;SDS011;6775;49.574;11.170;2023-02-15T02:33:55;14.93;;;7.30;;
13408;SDS011;6775;49.574;11.170;2023-02-15T02:36:30;11.77;;;7.00;;
13408;SDS011;6775;49.574;11.170;2023-02-15T02:39:09;12.90;;;6.97;;
13408;SDS011;6775;49.574;11.170;2023-02-15T02:41:50;10.90;;;6.57;;
13408;SDS011;6775;49.574;11.170;2023-02-15T02:44:26;11.70;;;6.80;;
13408;SDS011;6775;49.574;11.170;2023-02-15T02:47:02;12.13;;;6.50;;
13408;SDS011;6775;49.574;11.170;2023-02-15T02:49:38;13.57;;;6.90;;
13408;SDS011;6775;49.574;11.170;2023-02-15T02:55:09;12.13;;;6.67;;
13408;SDS011;6775;49.574;11.170;2023-02-15T02:57:41;12.77;;;7.00;;
13408;SDS011;6775;49.574;11.170;2023-02-15T03:00:14;11.40;;;6.63;;
13408;SDS011;6775;49.574;11.170;2023-02-15T03:02:45;12.47;;;7.23;;
13408;SDS011;6775;49.574;11.170;2023-02-15T03:05:18;12.70;;;7.10;;
13408;SDS011;6775;49.574;11.170;2023-02-15T03:07:51;11.40;;;6.87;;
13408;SDS011;6775;49.574;11.170;2023-02-15T03:10:21;13.03;;;7.17;;
13408;SDS011;6775;49.574;11.170;2023-02-15T03:12:50;13.20;;;6.50;;
13408;SDS011;6775;49.574;11.170;2023-02-15T03:15:20;14.93;;;7.40;;
13408;SDS011;6775;49.574;11.170;2023-02-15T03:17:51;15.50;;;7.73;;
13408;SDS011;6775;49.574;11.170;2023-02-15T03:20:24;13.77;;;7.40;;
13408;SDS011;6775;49.574;11.170;2023-02-15T03:22:56;15.33;;;8.50;;
13408;SDS011;6775;49.574;11.170;2023-02-15T03:25:27;12.30;;;7.70;;
13408;SDS011;6775;49.574;11.170;2023-02-15T03:28:01;13.80;;;6.47;;
13408;SDS011;6775;49.574;11.170;2023-02-15T03:30:33;13.77;;;7.57;;
13408;SDS011;6775;49.574;11.170;2023-02-15T03:33:03;13.47;;;7.37;;
13408;SDS011;6775;49.574;11.170;2023-02-15T03:35:36;12.50;;;6.70;;
13408;SDS011;6775;49.574;11.170;2023-02-15T03:38:11;11.33;;;6.50;;
13408;SDS011;6775;49.574;11.170;2023-02-15T03:40:44;12.33;;;6.73;;
13408;SDS011;6775;49.574;11.170;2023-02-15T03:43:32;11.40;;;6.80;;
13408;SDS011;6775;49.574;11.170;2023-02-15T03:46:11;12.73;;;7.17;;
13408;SDS011;6775;49.574;11.170;2023-02-15T03:48:44;10.37;;;6.47;;
13408;SDS011;6775;49.574;11.170;2023-02-15T03:51:18;9.90;;;6.03;;
13408;SDS011;6775;49.574;11.170;2023-02-15T03:54:01;12.47;;;6.40;;
13408;SDS011;6775;49.574;11.170;2023-02-15T03:56:33;10.30;;;6.77;;
13408;SDS011;6775;49.574;11.170;2023-02-15T03:59:02;11.23;;;6.63;;
13408;SDS011;6775;49.574;11.170;2023-02-15T04:01:50;10.67;;;6.10;;
13408;SDS011;6775;49.574;11.170;2023-02-15T04:04:31;10.47;;;5.90;;
13408;SDS011;6775;49.574;11.170;2023-02-15T04:07:03;10.40;;;5.97;;
13408;SDS011;6775;49.574;11.170;2023-02-15T04:09:32;12.50;;;6.70;;
13408;SDS011;6775;49.574;11.170;2023-02-15T04:12:18;10.47;;;6.47;;
13408;SDS011;6775;49.574;11.170;2023-02-15T04:14:46;10.17;;;5.67;;
13408;SDS011;6775;49.574;11.170;2023-02-15T04:17:31;8.87;;;5.10;;
13408;SDS011;6775;49.574;11.170;2023-02-15T04:19:59;9.20;;;5.57;;
13408;SDS011;6775;49.574;11.170;2023-02-15T04:22:46;10.47;;;6.13;;
13408;SDS011;6775;49.574;11.170;2023-02-15T04:25:32;11.57;;;6.27;;
13408;SDS011;6775;49.574;11.170;2023-02-15T04:28:00;9.53;;;5.83;;
13408;SDS011;6775;49.574;11.170;2023-02-15T04:30:28;9.67;;;5.67;;
13408;SDS011;6775;49.574;11.170;2023-02-15T04:32:56;10.13;;;5.83;;
13408;SDS011;6775;49.574;11.170;2023-02-15T04:35:24;11.40;;;6.97;;
13408;SDS011;6775;49.574;11.170;2023-02-15T04:37:54;8.57;;;5.97;;
13408;SDS011;6775;49.574;11.170;2023-02-15T04:40:22;8.93;;;5.63;;
13408;SDS011;6775;49.574;11.170;2023-02-15T04:42:50;10.63;;;6.27;;
13408;SDS011;6775;49.574;11.170;2023-02-15T04:45:18;10.67;;;5.80;;
13408;SDS011;6775;49.574;11.170;2023-02-15T04:47:46;10.73;;;6.20;;
13408;SDS011;6775;49.574;11.170;2023-02-15T04:50:14;8.53;;;5.43;;
13408;SDS011;6775;49.574;11.170;2023-02-15T04:52:42;8.20;;;5.00;;
13408;SDS011;6775;49.574;11.170;2023-02-15T04:55:11;9.20;;;5.90;;
13408;SDS011;6775;49.574;11.170;2023-02-15T04:57:40;9.40;;;6.40;;
13408;SDS011;6775;49.574;11.170;2023-02-15T05:00:08;8.53;;;5.90;;
13408;SDS011;6775;49.574;11.170;2023-02-15T05:02:37;10.47;;;5.93;;
13408;SDS011;6775;49.574;11.170;2023-02-15T05:05:05;11.73;;;6.80;;
13408;SDS011;6775;49.574;11.170;2023-02-15T05:07:35;11.13;;;6.60;;
13408;SDS011;6775;49.574;11.170;2023-02-15T05:10:03;10.03;;;6.00;;
13408;SDS011;6775;49.574;11.170;2023-02-15T05:12:33;14.00;;;6.73;;
13408;SDS011;6775;49.574;11.170;2023-02-15T05:15:01;11.57;;;6.43;;
13408;SDS011;6775;49.574;11.170;2023-02-15T05:17:29;11.50;;;6.73;;
13408;SDS011;6775;49.574;11.170;2023-02-15T05:19:57;10.37;;;6.70;;
13408;SDS011;6775;49.574;11.170;2023-02-15T05:22:25;12.33;;;7.13;;
13408;SDS011;6775;49.574;11.170;2023-02-15T05:24:53;11.40;;;6.17;;
13408;SDS011;6775;49.574;11.170;2023-02-15T05:27:39;13.27;;;6.70;;
13408;SDS011;6775;49.574;11.170;2023-02-15T05:30:25;12.53;;;6.63;;
13408;SDS011;6775;49.574;11.170;2023-02-15T05:32:53;11.70;;;6.70;;
13408;SDS011;6775;49.574;11.170;2023-02-15T05:35:21;13.00;;;6.87;;
13408;SDS011;6775;49.574;11.170;2023-02-15T05:37:49;10.80;;;6.87;;
13408;SDS011;6775;49.574;11.170;2023-02-15T05:40:17;11.70;;;7.23;;
13408;SDS011;6775;49.574;11.170;2023-02-15T05:42:46;12.27;;;6.80;;
13408;SDS011;6775;49.574;11.170;2023-02-15T05:45:14;14.90;;;7.73;;
13408;SDS011;6775;49.574;11.170;2023-02-15T05:47:42;16.30;;;7.70;;
13408;SDS011;6775;49.574;11.170;2023-02-15T05:50:10;14.80;;;8.13;;
13408;SDS011;6775;49.574;11.170;2023-02-15T05:52:38;12.07;;;7.60;;
13408;SDS011;6775;49.574;11.170;2023-02-15T05:55:06;12.80;;;7.63;;
13408;SDS011;6775;49.574;11.170;2023-02-15T05:57:35;15.17;;;7.97;;
13408;SDS011;6775;49.574;11.170;2023-02-15T06:00:05;14.33;;;8.40;;
13408;SDS011;6775;49.574;11.170;2023-02-15T06:02:36;14.40;;;7.73;;
13408;SDS011;6775;49.574;11.170;2023-02-15T06:05:04;13.10;;;7.60;;
13408;SDS011;6775;49.574;11.170;2023-02-15T06:07:33;13.30;;;7.77;;
13408;SDS011;6775;49.574;11.170;2023-02-15T06:10:01;11.20;;;7.27;;
13408;SDS011;6775;49.574;11.170;2023-02-15T06:12:29;16.30;;;7.93;;
13408;SDS011;6775;49.574;11.170;2023-02-15T06:14:57;12.07;;;7.30;;
13408;SDS011;6775;49.574;11.170;2023-02-15T06:17:27;14.90;;;7.90;;
13408;SDS011;6775;49.574;11.170;2023-02-15T06:19:54;14.83;;;7.00;;
13408;SDS011;6775;49.574;11.170;2023-02-15T06:22:22;11.57;;;7.27;;
13408;SDS011;6775;49.574;11.170;2023-02-15T06:24:50;10.63;;;6.73;;
13408;SDS011;6775;49.574;11.170;2023-02-15T06:27:18;13.47;;;7.97;;
13408;SDS011;6775;49.574;11.170;2023-02-15T06:29:46;11.83;;;7.40;;
13408;SDS011;6775;49.574;11.170;2023-02-15T06:32:15;11.53;;;7.60;;
13408;SDS011;6775;49.574;11.170;2023-02-15T06:34:44;13.90;;;7.17;;
13408;SDS011;6775;49.574;11.170;2023-02-15T06:37:14;13.90;;;7.90;;
13408;SDS011;6775;49.574;11.170;2023-02-15T06:39:42;11.53;;;6.83;;
13408;SDS011;6775;49.574;11.170;2023-02-15T06:42:10;11.83;;;6.80;;
13408;SDS011;6775;49.574;11.170;2023-02-15T06:44:38;15.20;;;8.13;;
13408;SDS011;6775;49.574;11.170;2023-02-15T06:47:06;12.20;;;7.33;;
13408;SDS011;6775;49.574;11.170;2023-02-15T06:49:34;12.73;;;6.73;;
13408;SDS011;6775;49.574;11.170;2023-02-15T06:52:03;11.73;;;7.80;;
13408;SDS011;6775;49.574;11.170;2023-02-15T06:54:31;13.50;;;7.40;;
13408;SDS011;6775;49.574;11.170;2023-02-15T06:56:59;13.57;;;7.77;;
13408;SDS011;6775;49.574;11.170;2023-02-15T06:59:27;10.13;;;6.90;;
13408;SDS011;6775;49.574;11.170;2023-02-15T07:01:55;11.53;;;7.50;;
13408;SDS011;6775;49.574;11.170;2023-02-15T07:04:23;12.27;;;7.30;;
13408;SDS011;6775;49.574;11.170;2023-02-15T07:06:51;9.33;;;7.03;;
13408;SDS011;6775;49.574;11.170;2023-02-15T07:09:20;11.67;;;6.97;;
13408;SDS011;6775;49.574;11.170;2023-02-15T07:11:49;11.50;;;7.20;;
13408;SDS011;6775;49.574;11.170;2023-02-15T07:14:34;13.60;;;7.93;;
13408;SDS011;6775;49.574;11.170;2023-02-15T07:17:02;13.63;;;7.60;;
13408;SDS011;6775;49.574;11.170;2023-02-15T07:19:32;12.57;;;7.37;;
13408;SDS011;6775;49.574;11.170;2023-02-15T07:22:00;14.80;;;8.23;;
13408;SDS011;6775;49.574;11.170;2023-02-15T07:24:31;12.30;;;6.93;;
13408;SDS011;6775;49.574;11.170;2023-02-15T07:26:59;12.47;;;7.57;;
13408;SDS011;6775;49.574;11.170;2023-02-15T07:29:27;13.00;;;7.70;;
13408;SDS011;6775;49.574;11.170;2023-02-15T07:31:54;11.70;;;6.50;;
13408;SDS011;6775;49.574;11.170;2023-02-15T07:34:22;13.47;;;7.67;;
13408;SDS011;6775;49.574;11.170;2023-02-15T07:36:50;12.67;;;6.93;;
13408;SDS011;6775;49.574;11.170;2023-02-15T07:39:19;15.23;;;8.97;;
13408;SDS011;6775;49.574;11.170;2023-02-15T07:41:49;16.33;;;7.77;;
13408;SDS011;6775;49.574;11.170;2023-02-15T07:44:17;12.33;;;7.63;;
13408;SDS011;6775;49.574;11.170;2023-02-15T07:46:45;11.00;;;6.90;;
13408;SDS011;6775;49.574;11.170;2023-02-15T07:49:13;12.33;;;7.07;;
13408;SDS011;6775;49.574;11.170;2023-02-15T07:51:41;14.10;;;7.70;;
13408;SDS011;6775;49.574;11.170;2023-02-15T07:54:09;11.87;;;7.17;;
13408;SDS011;6775;49.574;11.170;2023-02-15T07:56:37;13.03;;;7.13;;
13408;SDS011;6775;49.574;11.170;2023-02-15T07:59:06;14.87;;;8.03;;
13408;SDS011;6775;49.574;11.170;2023-02-15T08:01:35;15.40;;;8.60;;
13408;SDS011;6775;49.574;11.170;2023-02-15T08:04:05;16.17;;;9.03;;
13408;SDS011;6775;49.574;11.170;2023-02-15T08:06:35;15.27;;;8.73;;
13408;SDS011;6775;49.574;11.170;2023-02-15T08:09:04;17.40;;;8.93;;
13408;SDS011;6775;49.574;11.170;2023-02-15T08:11:33;15.77;;;9.17;;
13408;SDS011;6775;49.574;11.170;2023-02-15T08:14:08;15.10;;;8.43;;
13408;SDS011;6775;49.574;11.170;2023-02-15T08:16:37;13.90;;;8.87;;
13408;SDS011;6775;49.574;11.170;2023-02-15T08:19:07;15.83;;;9.00;;
13408;SDS011;6775;49.574;11.170;2023-02-15T08:21:36;15.77;;;8.67;;
13408;SDS011;6775;49.574;11.170;2023-02-15T08:24:06;15.33;;;9.00;;
13408;SDS011;6775;49.574;11.170;2023-02-15T08:26:35;14.17;;;8.40;;
13408;SDS011;6775;49.574;11.170;2023-02-15T08:29:08;18.73;;;9.40;;
13408;SDS011;6775;49.574;11.170;2023-02-15T08:31:36;13.70;;;8.33;;
13408;SDS011;6775;49.574;11.170;2023-02-15T08:34:07;13.43;;;8.57;;
13408;SDS011;6775;49.574;11.170;2023-02-15T08:36:36;16.77;;;9.57;;
13408;SDS011;6775;49.574;11.170;2023-02-15T08:39:05;15.73;;;9.37;;
13408;SDS011;6775;49.574;11.170;2023-02-15T08:41:34;15.40;;;8.63;;
13408;SDS011;6775;49.574;11.170;2023-02-15T08:44:04;14.47;;;8.67;;
13408;SDS011;6775;49.574;11.170;2023-02-15T08:46:36;15.80;;;9.83;;
13408;SDS011;6775;49.574;11.170;2023-02-15T08:49:05;19.90;;;12.67;;
13408;SDS011;6775;49.574;11.170;2023-02-15T08:51:34;17.33;;;11.87;;
13408;SDS011;6775;49.574;11.170;2023-02-15T08:54:03;16.33;;;10.20;;
13408;SDS011;6775;49.574;11.170;2023-02-15T08:56:33;16.77;;;9.77;;
13408;SDS011;6775;49.574;11.170;2023-02-15T08:59:03;14.33;;;9.53;;
13408;SDS011;6775;49.574;11.170;2023-02-15T09:01:33;17.63;;;10.03;;
13408;SDS011;6775;49.574;11.170;2023-02-15T09:04:03;14.57;;;8.87;;
13408;SDS011;6775;49.574;11.170;2023-02-15T09:06:34;16.93;;;9.50;;
13408;SDS011;6775;49.574;11.170;2023-02-15T09:09:03;14.93;;;9.47;;
13408;SDS011;6775;49.574;11.170;2023-02-15T09:11:33;18.50;;;10.30;;
13408;SDS011;6775;49.574;11.170;2023-02-15T09:14:03;17.33;;;10.47;;
13408;SDS011;6775;49.574;11.170;2023-02-15T09:16:36;16.00;;;10.33;;
13408;SDS011;6775;49.574;11.170;2023-02-15T09:19:05;17.63;;;10.40;;
13408;SDS011;6775;49.574;11.170;2023-02-15T09:21:33;17.27;;;9.47;;
13408;SDS011;6775;49.574;11.170;2023-02-15T09:24:04;14.57;;;9.70;;
13408;SDS011;6775;49.574;11.170;2023-02-15T09:26:34;14.83;;;9.80;;
13408;SDS011;6775;49.574;11.170;2023-02-15T09:29:03;18.70;;;10.13;;
13408;SDS011;6775;49.574;11.170;2023-02-15T09:31:32;19.60;;;10.60;;
13408;SDS011;6775;49.574;11.170;2023-02-15T09:34:03;17.93;;;10.83;;
13408;SDS011;6775;49.574;11.170;2023-02-15T09:36:31;19.33;;;9.93;;
13408;SDS011;6775;49.574;11.170;2023-02-15T09:39:01;19.23;;;11.50;;
13408;SDS011;6775;49.574;11.170;2023-02-15T09:41:41;18.50;;;10.00;;
13408;SDS011;6775;49.574;11.170;2023-02-15T09:44:32;17.20;;;9.93;;
13408;SDS011;6775;49.574;11.170;2023-02-15T09:47:21;16.03;;;9.30;;
13408;SDS011;6775;49.574;11.170;2023-02-15T09:50:03;19.13;;;10.77;;
13408;SDS011;6775;49.574;11.170;2023-02-15T09:52:41;19.13;;;9.80;;
13408;SDS011;6775;49.574;11.170;2023-02-15T09:55:23;20.17;;;10.40;;
13408;SDS011;6775;49.574;11.170;2023-02-15T09:58:03;19.70;;;11.17;;
13408;SDS011;6775;49.574;11.170;2023-02-15T10:00:39;20.30;;;11.47;;
13408;SDS011;6775;49.574;11.170;2023-02-15T10:03:19;16.37;;;10.30;;
13408;SDS011;6775;49.574;11.170;2023-02-15T10:06:03;16.97;;;10.33;;
13408;SDS011;6775;49.574;11.170;2023-02-15T10:09:07;18.63;;;10.60;;
13408;SDS011;6775;49.574;11.170;2023-02-15T10:11:50;16.63;;;9.87;;
13408;SDS011;6775;49.574;11.170;2023-02-15T10:17:43;16.30;;;9.27;;
13408;SDS011;6775;49.574;11.170;2023-02-15T10:20:23;16.40;;;9.57;;
13408;SDS011;6775;49.574;11.170;2023-02-15T10:23:13;13.43;;;8.33;;
13408;SDS011;6775;49.574;11.170;2023-02-15T10:25:55;14.70;;;8.57;;
13408;SDS011;6775;49.574;11.170;2023-02-15T10:28:30;15.63;;;8.93;;
13408;SDS011;6775;49.574;11.170;2023-02-15T10:31:07;13.67;;;8.20;;
13408;SDS011;6775;49.574;11.170;2023-02-15T10:33:47;12.40;;;8.80;;
13408;SDS011;6775;49.574;11.170;2023-02-15T10:36:26;12.20;;;8.10;;
13408;SDS011;6775;49.574;11.170;2023-02-15T10:39:07;11.17;;;6.43;;
13408;SDS011;6775;49.574;11.170;2023-02-15T10:41:42;11.03;;;6.63;;
13408;SDS011;6775;49.574;11.170;2023-02-15T10:44:21;8.93;;;5.77;;
13408;SDS011;6775;49.574;11.170;2023-02-15T10:47:02;8.60;;;6.47;;
13408;SDS011;6775;49.574;11.170;2023-02-15T10:49:47;8.10;;;5.67;;
13408;SDS011;6775;49.574;11.170;2023-02-15T10:52:28;7.60;;;6.63;;
13408;SDS011;6775;49.574;11.170;2023-02-15T10:55:08;7.00;;;6.30;;
13408;SDS011;6775;49.574;11.170;2023-02-15T10:57:44;7.70;;;6.00;;
13408;SDS011;6775;49.574;11.170;2023-02-15T11:00:21;6.33;;;5.63;;
13408;SDS011;6775;49.574;11.170;2023-02-15T11:02:59;7.40;;;5.73;;
13408;SDS011;6775;49.574;11.170;2023-02-15T11:05:41;7.93;;;6.63;;
13408;SDS011;6775;49.574;11.170;2023-02-15T11:08:15;6.93;;;6.23;;
13408;SDS011;6775;49.574;11.170;2023-02-15T11:10:45;6.03;;;5.43;;
13408;SDS011;6775;49.574;11.170;2023-02-15T11:13:18;6.47;;;5.87;;
13408;SDS011;6775;49.574;11.170;2023-02-15T11:15:49;7.73;;;6.93;;
13408;SDS011;6775;49.574;11.170;2023-02-15T11:18:22;7.37;;;6.30;;
13408;SDS011;6775;49.574;11.170;2023-02-15T11:20:54;7.17;;;6.20;;
13408;SDS011;6775;49.574;11.170;2023-02-15T11:23:26;8.37;;;6.97;;
13408;SDS011;6775;49.574;11.170;2023-02-15T11:25:57;8.33;;;6.43;;
13408;SDS011;6775;49.574;11.170;2023-02-15T11:28:29;8.00;;;7.03;;
13408;SDS011;6775;49.574;11.170;2023-02-15T11:31:02;7.90;;;6.80;;
13408;SDS011;6775;49.574;11.170;2023-02-15T11:33:41;8.53;;;7.00;;
13408;SDS011;6775;49.574;11.170;2023-02-15T11:36:13;9.70;;;8.40;;
13408;SDS011;6775;49.574;11.170;2023-02-15T11:38:45;8.30;;;6.47;;
13408;SDS011;6775;49.574;11.170;2023-02-15T11:41:18;8.60;;;7.00;;
13408;SDS011;6775;49.574;11.170;2023-02-15T11:43:51;7.77;;;5.93;;
13408;SDS011;6775;49.574;11.170;2023-02-15T11:46:23;7.07;;;5.57;;
13408;SDS011;6775;49.574;11.170;2023-02-15T11:48:51;5.40;;;4.80;;
13408;SDS011;6775;49.574;11.170;2023-02-15T11:51:20;6.23;;;5.63;;
13408;SDS011;6775;49.574;11.170;2023-02-15T11:53:50;5.80;;;5.30;;
13408;SDS011;6775;49.574;11.170;2023-02-15T11:56:21;4.13;;;3.73;;
13408;SDS011;6775;49.574;11.170;2023-02-15T11:58:51;3.93;;;3.57;;
13408;SDS011;6775;49.574;11.170;2023-02-15T12:01:24;3.73;;;3.43;;
13408;SDS011;6775;49.574;11.170;2023-02-15T12:03:58;5.10;;;3.83;;
13408;SDS011;6775;49.574;11.170;2023-02-15T12:06:32;3.40;;;3.10;;
13408;SDS011;6775;49.574;11.170;2023-02-15T12:09:05;4.50;;;4.10;;
13408;SDS011;6775;49.574;11.170;2023-02-15T12:11:42;3.87;;;3.57;;
13408;SDS011;6775;49.574;11.170;2023-02-15T12:14:10;4.73;;;4.33;;
13408;SDS011;6775;49.574;11.170;2023-02-15T12:16:42;5.60;;;4.07;;
13408;SDS011;6775;49.574;11.170;2023-02-15T12:19:21;3.80;;;3.40;;
13408;SDS011;6775;49.574;11.170;2023-02-15T12:21:58;3.70;;;3.40;;
13408;SDS011;6775;49.574;11.170;2023-02-15T12:24:28;3.87;;;3.47;;
13408;SDS011;6775;49.574;11.170;2023-02-15T12:27:02;3.30;;;2.77;;
13408;SDS011;6775;49.574;11.170;2023-02-15T12:29:34;3.60;;;3.30;;
13408;SDS011;6775;49.574;11.170;2023-02-15T12:32:08;4.37;;;3.97;;
13408;SDS011;6775;49.574;11.170;2023-02-15T12:34:38;3.10;;;2.80;;
13408;SDS011;6775;49.574;11.170;2023-02-15T12:37:10;5.03;;;4.27;;
13408;SDS011;6775;49.574;11.170;2023-02-15T12:39:50;3.00;;;2.80;;
13408;SDS011;6775;49.574;11.170;2023-02-15T12:42:22;4.93;;;4.53;;
13408;SDS011;6775;49.574;11.170;2023-02-15T12:44:55;5.00;;;4.60;;
13408;SDS011;6775;49.574;11.170;2023-02-15T12:47:25;4.27;;;3.87;;
13408;SDS011;6775;49.574;11.170;2023-02-15T12:50:06;3.20;;;2.90;;
13408;SDS011;6775;49.574;11.170;2023-02-15T12:52:43;3.77;;;3.37;;
13408;SDS011;6775;49.574;11.170;2023-02-15T12:55:21;4.00;;;3.60;;
13408;SDS011;6775;49.574;11.170;2023-02-15T12:58:06;3.60;;;3.00;;
13408;SDS011;6775;49.574;11.170;2023-02-15T13:00:35;3.80;;;3.50;;
13408;SDS011;6775;49.574;11.170;2023-02-15T13:03:03;4.37;;;3.33;;
13408;SDS011;6775;49.574;11.170;2023-02-15T13:05:32;5.43;;;4.40;;
13408;SDS011;6775;49.574;11.170;2023-02-15T13:08:03;3.37;;;3.07;;
13408;SDS011;6775;49.574;11.170;2023-02-15T13:10:39;3.50;;;3.20;;
13408;SDS011;6775;49.574;11.170;2023-02-15T13:13:11;3.80;;;3.40;;
13408;SDS011;6775;49.574;11.170;2023-02-15T13:15:49;4.03;;;3.63;;
13408;SDS011;6775;49.574;11.170;2023-02-15T13:18:19;4.10;;;3.70;;
13408;SDS011;6775;49.574;11.170;2023-02-15T13:20:56;4.53;;;4.13;;
13408;SDS011;6775;49.574;11.170;2023-02-15T13:23:28;3.90;;;3.60;;
13408;SDS011;6775;49.574;11.170;2023-02-15T13:26:02;4.13;;;3.73;;
13408;SDS011;6775;49.574;11.170;2023-02-15T13:28:35;4.43;;;4.03;;
13408;SDS011;6775;49.574;11.170;2023-02-15T13:31:11;4.10;;;3.67;;
13408;SDS011;6775;49.574;11.170;2023-02-15T13:33:42;5.60;;;5.10;;
13408;SDS011;6775;49.574;11.170;2023-02-15T13:36:15;5.07;;;4.40;;
13408;SDS011;6775;49.574;11.170;2023-02-15T13:38:49;4.40;;;4.00;;
13408;SDS011;6775;49.574;11.170;2023-02-15T13:41:30;3.80;;;3.50;;
13408;SDS011;6775;49.574;11.170;2023-02-15T13:44:09;4.70;;;4.30;;
13408;SDS011;6775;49.574;11.170;2023-02-15T13:46:49;5.50;;;5.00;;
13408;SDS011;6775;49.574;11.170;2023-02-15T13:49:28;5.07;;;4.13;;
13408;SDS011;6775;49.574;11.170;2023-02-15T13:52:13;4.67;;;4.27;;
13408;SDS011;6775;49.574;11.170;2023-02-15T13:54:54;4.37;;;3.97;;
13408;SDS011;6775;49.574;11.170;2023-02-15T13:57:45;4.57;;;4.17;;
13408;SDS011;6775;49.574;11.170;2023-02-15T14:00:31;4.37;;;3.87;;
13408;SDS011;6775;49.574;11.170;2023-02-15T14:03:20;4.57;;;4.17;;
13408;SDS011;6775;49.574;11.170;2023-02-15T14:06:20;5.80;;;4.40;;
13408;SDS011;6775;49.574;11.170;2023-02-15T14:09:09;5.23;;;4.70;;
13408;SDS011;6775;49.574;11.170;2023-02-15T14:11:44;5.60;;;5.00;;
13408;SDS011;6775;49.574;11.170;2023-02-15T14:14:32;6.43;;;5.83;;
13408;SDS011;6775;49.574;11.170;2023-02-15T14:17:17;5.90;;;5.30;;
13408;SDS011;6775;49.574;11.170;2023-02-15T14:19:52;6.17;;;5.57;;
13408;SDS011;6775;49.574;11.170;2023-02-15T14:22:25;6.27;;;5.60;;
13408;SDS011;6775;49.574;11.170;2023-02-15T14:27:50;6.33;;;5.40;;
13408;SDS011;6775;49.574;11.170;2023-02-15T14:30:24;7.50;;;6.33;;
13408;SDS011;6775;49.574;11.170;2023-02-15T14:32:59;6.87;;;5.47;;
13408;SDS011;6775;49.574;11.170;2023-02-15T14:35:31;6.80;;;5.57;;
13408;SDS011;6775;49.574;11.170;2023-02-15T14:38:02;5.23;;;4.53;;
13408;SDS011;6775;49.574;11.170;2023-02-15T14:40:40;5.67;;;4.87;;
13408;SDS011;6775;49.574;11.170;2023-02-15T14:43:30;6.07;;;5.00;;
13408;SDS011;6775;49.574;11.170;2023-02-15T14:46:14;7.20;;;5.00;;
13408;SDS011;6775;49.574;11.170;2023-02-15T14:48:51;6.87;;;5.30;;
13408;SDS011;6775;49.574;11.170;2023-02-15T14:57:32;10.33;;;7.00;;
13408;SDS011;6775;49.574;11.170;2023-02-15T15:02:57;10.07;;;7.37;;
13408;SDS011;6775;49.574;11.170;2023-02-15T15:05:32;9.73;;;7.13;;
13408;SDS011;6775;49.574;11.170;2023-02-15T15:08:03;10.20;;;6.97;;
13408;SDS011;6775;49.574;11.170;2023-02-15T15:10:36;9.70;;;6.97;;
13408;SDS011;6775;49.574;11.170;2023-02-15T15:16:28;11.40;;;7.13;;
13408;SDS011;6775;49.574;11.170;2023-02-15T15:25:08;13.97;;;9.33;;
13408;SDS011;6775;49.574;11.170;2023-02-15T15:27:39;16.30;;;10.37;;
13408;SDS011;6775;49.574;11.170;2023-02-15T15:33:19;17.10;;;10.80;;
13408;SDS011;6775;49.574;11.170;2023-02-15T15:36:13;16.60;;;11.07;;
13408;SDS011;6775;49.574;11.170;2023-02-15T15:39:01;20.13;;;12.57;;
13408;SDS011;6775;49.574;11.170;2023-02-15T15:41:40;15.70;;;10.67;;
13408;SDS011;6775;49.574;11.170;2023-02-15T15:44:30;15.80;;;10.97;;
13408;SDS011;6775;49.574;11.170;2023-02-15T15:47:20;13.40;;;9.80;;
13408;SDS011;6775;49.574;11.170;2023-02-15T15:50:11;14.37;;;9.80;;